sensor_id;sensor_type;location;lat;lon;timestamp;P1;durP1;ratioP1;P2;durP2;ratioP2
65757;SDS011;52495;52.208;5.158;2023-07-13T00:01:04;10.55;;;2.53;;
65757;SDS011;52495;52.208;5.158;2023-07-13T00:03:32;11.40;;;2.88;;
65757;SDS011;52495;52.208;5.158;2023-07-13T00:06:00;14.13;;;3.53;;
65757;SDS011;52495;52.208;5.158;2023-07-13T00:08:29;12.05;;;3.00;;
65757;SDS011;52495;52.208;5.158;2023-07-13T00:10:59;10.77;;;2.45;;
65757;SDS011;52495;52.208;5.158;2023-07-13T00:13:26;12.90;;;2.67;;
65757;SDS011;52495;52.208;5.158;2023-07-13T00:15:53;9.15;;;2.65;;
65757;SDS011;52495;52.208;5.158;2023-07-13T00:18:21;12.35;;;2.67;;
65757;SDS011;52495;52.208;5.158;2023-07-13T00:20:48;10.77;;;2.63;;
65757;SDS011;52495;52.208;5.158;2023-07-13T00:23:15;8.55;;;2.88;;
65757;SDS011;52495;52.208;5.158;2023-07-13T00:25:42;9.82;;;2.78;;
65757;SDS011;52495;52.208;5.158;2023-07-13T00:28:11;10.65;;;2.53;;
65757;SDS011;52495;52.208;5.158;2023-07-13T00:30:37;8.35;;;2.38;;
65757;SDS011;52495;52.208;5.158;2023-07-13T00:33:04;12.00;;;2.72;;
65757;SDS011;52495;52.208;5.158;2023-07-13T00:35:33;11.00;;;3.58;;
65757;SDS011;52495;52.208;5.158;2023-07-13T00:38:00;13.10;;;3.00;;
65757;SDS011;52495;52.208;5.158;2023-07-13T00:40:28;9.50;;;2.92;;
65757;SDS011;52495;52.208;5.158;2023-07-13T00:42:56;9.38;;;2.30;;
65757;SDS011;52495;52.208;5.158;2023-07-13T00:48:31;8.20;;;3.45;;
65757;SDS011;52495;52.208;5.158;2023-07-13T00:51:00;8.83;;;2.37;;
65757;SDS011;52495;52.208;5.158;2023-07-13T00:53:28;10.27;;;2.60;;
65757;SDS011;52495;52.208;5.158;2023-07-13T00:55:57;7.05;;;2.25;;
65757;SDS011;52495;52.208;5.158;2023-07-13T00:58:24;9.68;;;2.55;;
65757;SDS011;52495;52.208;5.158;2023-07-13T01:00:52;9.52;;;2.35;;
65757;SDS011;52495;52.208;5.158;2023-07-13T01:03:19;9.75;;;2.72;;
65757;SDS011;52495;52.208;5.158;2023-07-13T01:05:48;8.07;;;2.28;;
65757;SDS011;52495;52.208;5.158;2023-07-13T01:08:16;7.50;;;2.20;;
65757;SDS011;52495;52.208;5.158;2023-07-13T01:10:50;9.05;;;2.63;;
65757;SDS011;52495;52.208;5.158;2023-07-13T01:13:17;9.20;;;1.95;;
65757;SDS011;52495;52.208;5.158;2023-07-13T01:15:45;8.50;;;2.38;;
65757;SDS011;52495;52.208;5.158;2023-07-13T01:18:14;7.32;;;2.25;;
65757;SDS011;52495;52.208;5.158;2023-07-13T01:20:50;9.50;;;2.45;;
65757;SDS011;52495;52.208;5.158;2023-07-13T01:23:18;10.60;;;2.35;;
65757;SDS011;52495;52.208;5.158;2023-07-13T01:25:45;7.53;;;2.10;;
65757;SDS011;52495;52.208;5.158;2023-07-13T01:28:12;8.82;;;1.98;;
65757;SDS011;52495;52.208;5.158;2023-07-13T01:30:39;7.18;;;2.83;;
65757;SDS011;52495;52.208;5.158;2023-07-13T01:33:06;8.95;;;2.40;;
65757;SDS011;52495;52.208;5.158;2023-07-13T01:35:34;9.38;;;2.83;;
65757;SDS011;52495;52.208;5.158;2023-07-13T01:38:03;8.45;;;2.60;;
65757;SDS011;52495;52.208;5.158;2023-07-13T01:40:30;6.55;;;2.10;;
65757;SDS011;52495;52.208;5.158;2023-07-13T01:42:58;8.10;;;2.28;;
65757;SDS011;52495;52.208;5.158;2023-07-13T01:45:25;9.05;;;2.20;;
65757;SDS011;52495;52.208;5.158;2023-07-13T01:47:51;7.05;;;2.50;;
65757;SDS011;52495;52.208;5.158;2023-07-13T01:50:18;5.95;;;2.45;;
65757;SDS011;52495;52.208;5.158;2023-07-13T01:52:45;8.93;;;2.78;;
65757;SDS011;52495;52.208;5.158;2023-07-13T01:55:14;9.32;;;2.42;;
65757;SDS011;52495;52.208;5.158;2023-07-13T01:57:41;7.88;;;2.10;;
65757;SDS011;52495;52.208;5.158;2023-07-13T02:00:09;7.72;;;2.65;;
65757;SDS011;52495;52.208;5.158;2023-07-13T02:02:46;10.18;;;2.63;;
65757;SDS011;52495;52.208;5.158;2023-07-13T02:05:13;6.72;;;2.40;;
65757;SDS011;52495;52.208;5.158;2023-07-13T02:07:40;12.68;;;3.22;;
65757;SDS011;52495;52.208;5.158;2023-07-13T02:10:08;5.45;;;2.08;;
65757;SDS011;52495;52.208;5.158;2023-07-13T02:12:38;6.75;;;2.72;;
65757;SDS011;52495;52.208;5.158;2023-07-13T02:15:05;7.20;;;3.17;;
65757;SDS011;52495;52.208;5.158;2023-07-13T02:17:33;10.05;;;2.90;;
65757;SDS011;52495;52.208;5.158;2023-07-13T02:20:01;8.57;;;2.50;;
65757;SDS011;52495;52.208;5.158;2023-07-13T02:22:28;14.45;;;3.90;;
65757;SDS011;52495;52.208;5.158;2023-07-13T02:24:56;9.38;;;2.58;;
65757;SDS011;52495;52.208;5.158;2023-07-13T02:27:23;7.75;;;2.50;;
65757;SDS011;52495;52.208;5.158;2023-07-13T02:29:52;9.60;;;2.88;;
65757;SDS011;52495;52.208;5.158;2023-07-13T02:32:20;10.02;;;3.15;;
65757;SDS011;52495;52.208;5.158;2023-07-13T02:34:47;7.68;;;2.50;;
65757;SDS011;52495;52.208;5.158;2023-07-13T02:37:13;8.55;;;2.90;;
65757;SDS011;52495;52.208;5.158;2023-07-13T02:39:40;8.20;;;3.20;;
65757;SDS011;52495;52.208;5.158;2023-07-13T02:42:07;10.90;;;2.75;;
65757;SDS011;52495;52.208;5.158;2023-07-13T02:44:34;5.57;;;2.70;;
65757;SDS011;52495;52.208;5.158;2023-07-13T02:47:02;9.00;;;2.47;;
65757;SDS011;52495;52.208;5.158;2023-07-13T02:49:29;8.60;;;2.55;;
65757;SDS011;52495;52.208;5.158;2023-07-13T02:51:56;8.38;;;3.10;;
65757;SDS011;52495;52.208;5.158;2023-07-13T02:54:23;10.15;;;3.08;;
65757;SDS011;52495;52.208;5.158;2023-07-13T02:56:49;7.43;;;2.50;;
65757;SDS011;52495;52.208;5.158;2023-07-13T02:59:16;11.32;;;2.92;;
65757;SDS011;52495;52.208;5.158;2023-07-13T03:01:43;8.90;;;2.72;;
65757;SDS011;52495;52.208;5.158;2023-07-13T03:04:11;9.95;;;2.95;;
65757;SDS011;52495;52.208;5.158;2023-07-13T03:06:39;8.73;;;2.75;;
65757;SDS011;52495;52.208;5.158;2023-07-13T03:09:06;9.05;;;2.40;;
65757;SDS011;52495;52.208;5.158;2023-07-13T03:11:35;9.93;;;3.03;;
65757;SDS011;52495;52.208;5.158;2023-07-13T03:14:21;8.20;;;2.00;;
65757;SDS011;52495;52.208;5.158;2023-07-13T03:16:48;7.90;;;2.50;;
65757;SDS011;52495;52.208;5.158;2023-07-13T03:19:17;6.70;;;2.50;;
65757;SDS011;52495;52.208;5.158;2023-07-13T03:21:48;4.32;;;1.77;;
65757;SDS011;52495;52.208;5.158;2023-07-13T03:24:15;5.30;;;2.10;;
65757;SDS011;52495;52.208;5.158;2023-07-13T03:26:43;8.40;;;2.47;;
65757;SDS011;52495;52.208;5.158;2023-07-13T03:29:10;7.68;;;2.10;;
65757;SDS011;52495;52.208;5.158;2023-07-13T03:31:37;5.60;;;2.55;;
65757;SDS011;52495;52.208;5.158;2023-07-13T03:34:04;5.57;;;2.10;;
65757;SDS011;52495;52.208;5.158;2023-07-13T03:36:32;8.88;;;2.60;;
65757;SDS011;52495;52.208;5.158;2023-07-13T03:39:03;6.22;;;2.30;;
65757;SDS011;52495;52.208;5.158;2023-07-13T03:41:40;6.72;;;2.10;;
65757;SDS011;52495;52.208;5.158;2023-07-13T03:44:07;7.57;;;2.58;;
65757;SDS011;52495;52.208;5.158;2023-07-13T03:46:33;7.50;;;2.40;;
65757;SDS011;52495;52.208;5.158;2023-07-13T03:49:01;8.55;;;2.42;;
65757;SDS011;52495;52.208;5.158;2023-07-13T03:51:28;9.23;;;2.67;;
65757;SDS011;52495;52.208;5.158;2023-07-13T03:53:56;9.77;;;2.58;;
65757;SDS011;52495;52.208;5.158;2023-07-13T03:56:23;6.15;;;2.22;;
65757;SDS011;52495;52.208;5.158;2023-07-13T03:58:50;12.32;;;3.17;;
65757;SDS011;52495;52.208;5.158;2023-07-13T04:01:20;10.00;;;2.90;;
65757;SDS011;52495;52.208;5.158;2023-07-13T04:03:48;9.50;;;2.58;;
65757;SDS011;52495;52.208;5.158;2023-07-13T04:06:15;9.02;;;2.80;;
65757;SDS011;52495;52.208;5.158;2023-07-13T04:08:46;8.00;;;3.13;;
65757;SDS011;52495;52.208;5.158;2023-07-13T04:11:16;8.32;;;2.50;;
65757;SDS011;52495;52.208;5.158;2023-07-13T04:13:44;5.88;;;2.13;;
65757;SDS011;52495;52.208;5.158;2023-07-13T04:16:11;9.55;;;3.25;;
65757;SDS011;52495;52.208;5.158;2023-07-13T04:18:38;4.57;;;2.00;;
65757;SDS011;52495;52.208;5.158;2023-07-13T04:21:06;8.73;;;2.60;;
65757;SDS011;52495;52.208;5.158;2023-07-13T04:23:34;8.35;;;2.33;;
65757;SDS011;52495;52.208;5.158;2023-07-13T04:26:01;9.77;;;2.70;;
65757;SDS011;52495;52.208;5.158;2023-07-13T04:28:29;5.72;;;2.35;;
65757;SDS011;52495;52.208;5.158;2023-07-13T04:30:56;9.02;;;2.53;;
65757;SDS011;52495;52.208;5.158;2023-07-13T04:33:23;9.63;;;3.63;;
65757;SDS011;52495;52.208;5.158;2023-07-13T04:35:51;11.25;;;3.13;;
65757;SDS011;52495;52.208;5.158;2023-07-13T04:38:19;10.23;;;2.97;;
65757;SDS011;52495;52.208;5.158;2023-07-13T04:40:46;9.73;;;2.80;;
65757;SDS011;52495;52.208;5.158;2023-07-13T04:43:14;11.98;;;3.35;;
65757;SDS011;52495;52.208;5.158;2023-07-13T04:45:42;10.95;;;3.10;;
65757;SDS011;52495;52.208;5.158;2023-07-13T04:48:08;12.82;;;3.30;;
65757;SDS011;52495;52.208;5.158;2023-07-13T04:50:35;10.65;;;3.55;;
65757;SDS011;52495;52.208;5.158;2023-07-13T04:53:02;12.38;;;3.40;;
65757;SDS011;52495;52.208;5.158;2023-07-13T04:55:29;14.20;;;4.07;;
65757;SDS011;52495;52.208;5.158;2023-07-13T04:57:56;12.45;;;3.55;;
65757;SDS011;52495;52.208;5.158;2023-07-13T05:00:25;10.90;;;3.42;;
65757;SDS011;52495;52.208;5.158;2023-07-13T05:02:53;12.23;;;3.92;;
65757;SDS011;52495;52.208;5.158;2023-07-13T05:05:20;13.43;;;4.05;;
65757;SDS011;52495;52.208;5.158;2023-07-13T05:07:47;9.93;;;3.78;;
65757;SDS011;52495;52.208;5.158;2023-07-13T05:10:14;10.18;;;3.65;;
65757;SDS011;52495;52.208;5.158;2023-07-13T05:12:41;16.27;;;4.10;;
65757;SDS011;52495;52.208;5.158;2023-07-13T05:15:09;10.60;;;3.78;;
65757;SDS011;52495;52.208;5.158;2023-07-13T05:17:37;15.20;;;4.15;;
65757;SDS011;52495;52.208;5.158;2023-07-13T05:20:06;19.88;;;4.30;;
65757;SDS011;52495;52.208;5.158;2023-07-13T05:22:33;10.50;;;3.47;;
65757;SDS011;52495;52.208;5.158;2023-07-13T05:25:00;9.60;;;3.30;;
65757;SDS011;52495;52.208;5.158;2023-07-13T05:27:27;8.48;;;3.33;;
65757;SDS011;52495;52.208;5.158;2023-07-13T05:29:54;12.75;;;3.85;;
65757;SDS011;52495;52.208;5.158;2023-07-13T05:32:21;14.80;;;4.47;;
65757;SDS011;52495;52.208;5.158;2023-07-13T05:34:48;17.13;;;4.05;;
65757;SDS011;52495;52.208;5.158;2023-07-13T05:37:16;18.30;;;5.25;;
65757;SDS011;52495;52.208;5.158;2023-07-13T05:39:43;16.65;;;4.18;;
65757;SDS011;52495;52.208;5.158;2023-07-13T05:42:10;14.05;;;3.78;;
65757;SDS011;52495;52.208;5.158;2023-07-13T05:44:36;12.38;;;3.85;;
65757;SDS011;52495;52.208;5.158;2023-07-13T05:47:03;12.95;;;3.88;;
65757;SDS011;52495;52.208;5.158;2023-07-13T05:49:30;12.68;;;4.03;;
65757;SDS011;52495;52.208;5.158;2023-07-13T05:51:57;10.10;;;3.42;;
65757;SDS011;52495;52.208;5.158;2023-07-13T05:54:26;11.13;;;3.63;;
65757;SDS011;52495;52.208;5.158;2023-07-13T05:56:53;14.13;;;4.18;;
65757;SDS011;52495;52.208;5.158;2023-07-13T05:59:19;13.90;;;4.07;;
65757;SDS011;52495;52.208;5.158;2023-07-13T06:01:46;17.20;;;4.22;;
65757;SDS011;52495;52.208;5.158;2023-07-13T06:04:13;16.17;;;3.60;;
65757;SDS011;52495;52.208;5.158;2023-07-13T06:06:40;16.10;;;5.25;;
65757;SDS011;52495;52.208;5.158;2023-07-13T06:09:07;11.77;;;4.28;;
65757;SDS011;52495;52.208;5.158;2023-07-13T06:11:35;15.15;;;4.85;;
65757;SDS011;52495;52.208;5.158;2023-07-13T06:14:01;13.65;;;4.30;;
65757;SDS011;52495;52.208;5.158;2023-07-13T06:16:29;13.35;;;4.70;;
65757;SDS011;52495;52.208;5.158;2023-07-13T06:18:55;14.55;;;5.20;;
65757;SDS011;52495;52.208;5.158;2023-07-13T06:21:22;12.98;;;4.25;;
65757;SDS011;52495;52.208;5.158;2023-07-13T06:23:49;19.40;;;4.95;;
65757;SDS011;52495;52.208;5.158;2023-07-13T06:26:18;13.52;;;4.93;;
65757;SDS011;52495;52.208;5.158;2023-07-13T06:28:48;12.43;;;4.35;;
65757;SDS011;52495;52.208;5.158;2023-07-13T06:31:15;15.60;;;4.80;;
65757;SDS011;52495;52.208;5.158;2023-07-13T06:33:42;21.13;;;5.80;;
65757;SDS011;52495;52.208;5.158;2023-07-13T06:36:10;12.07;;;4.50;;
65757;SDS011;52495;52.208;5.158;2023-07-13T06:38:37;11.15;;;4.28;;
65757;SDS011;52495;52.208;5.158;2023-07-13T06:41:04;13.32;;;4.18;;
65757;SDS011;52495;52.208;5.158;2023-07-13T06:43:31;18.05;;;4.75;;
65757;SDS011;52495;52.208;5.158;2023-07-13T06:46:00;13.75;;;4.78;;
65757;SDS011;52495;52.208;5.158;2023-07-13T06:48:26;15.65;;;4.97;;
65757;SDS011;52495;52.208;5.158;2023-07-13T06:50:54;14.57;;;3.83;;
65757;SDS011;52495;52.208;5.158;2023-07-13T06:53:21;11.98;;;3.88;;
65757;SDS011;52495;52.208;5.158;2023-07-13T06:55:49;9.38;;;3.45;;
65757;SDS011;52495;52.208;5.158;2023-07-13T06:58:17;14.43;;;4.05;;
65757;SDS011;52495;52.208;5.158;2023-07-13T07:00:44;19.75;;;5.32;;
65757;SDS011;52495;52.208;5.158;2023-07-13T07:03:13;15.23;;;5.68;;
65757;SDS011;52495;52.208;5.158;2023-07-13T07:05:40;15.88;;;4.82;;
65757;SDS011;52495;52.208;5.158;2023-07-13T07:08:06;16.23;;;4.45;;
65757;SDS011;52495;52.208;5.158;2023-07-13T07:10:33;14.07;;;4.55;;
65757;SDS011;52495;52.208;5.158;2023-07-13T07:13:00;10.82;;;4.65;;
65757;SDS011;52495;52.208;5.158;2023-07-13T07:15:28;8.75;;;3.00;;
65757;SDS011;52495;52.208;5.158;2023-07-13T07:17:55;12.38;;;2.92;;
65757;SDS011;52495;52.208;5.158;2023-07-13T07:20:23;4.90;;;2.20;;
65757;SDS011;52495;52.208;5.158;2023-07-13T07:22:50;4.10;;;1.80;;
65757;SDS011;52495;52.208;5.158;2023-07-13T07:25:17;5.00;;;2.25;;
65757;SDS011;52495;52.208;5.158;2023-07-13T07:27:44;4.35;;;1.75;;
65757;SDS011;52495;52.208;5.158;2023-07-13T07:30:29;5.44;;;1.74;;
65757;SDS011;52495;52.208;5.158;2023-07-13T07:32:56;3.65;;;1.83;;
65757;SDS011;52495;52.208;5.158;2023-07-13T07:35:24;3.47;;;1.65;;
65757;SDS011;52495;52.208;5.158;2023-07-13T07:37:51;5.18;;;2.25;;
65757;SDS011;52495;52.208;5.158;2023-07-13T07:40:18;6.78;;;2.20;;
65757;SDS011;52495;52.208;5.158;2023-07-13T07:42:45;5.70;;;2.50;;
65757;SDS011;52495;52.208;5.158;2023-07-13T07:45:13;5.93;;;2.13;;
65757;SDS011;52495;52.208;5.158;2023-07-13T07:47:40;7.60;;;2.38;;
65757;SDS011;52495;52.208;5.158;2023-07-13T07:50:07;6.57;;;2.10;;
65757;SDS011;52495;52.208;5.158;2023-07-13T07:52:36;7.30;;;2.50;;
65757;SDS011;52495;52.208;5.158;2023-07-13T07:55:04;6.13;;;2.90;;
65757;SDS011;52495;52.208;5.158;2023-07-13T07:57:32;7.63;;;2.90;;
65757;SDS011;52495;52.208;5.158;2023-07-13T07:59:59;7.90;;;2.83;;
65757;SDS011;52495;52.208;5.158;2023-07-13T08:02:26;10.27;;;3.72;;
65757;SDS011;52495;52.208;5.158;2023-07-13T08:04:53;9.95;;;3.83;;
65757;SDS011;52495;52.208;5.158;2023-07-13T08:07:20;8.35;;;3.90;;
65757;SDS011;52495;52.208;5.158;2023-07-13T08:09:48;7.75;;;3.40;;
65757;SDS011;52495;52.208;5.158;2023-07-13T08:12:18;7.43;;;3.50;;
65757;SDS011;52495;52.208;5.158;2023-07-13T08:14:44;7.07;;;3.03;;
65757;SDS011;52495;52.208;5.158;2023-07-13T08:17:11;6.32;;;3.00;;
65757;SDS011;52495;52.208;5.158;2023-07-13T08:19:38;7.30;;;3.42;;
65757;SDS011;52495;52.208;5.158;2023-07-13T08:22:05;9.35;;;3.20;;
65757;SDS011;52495;52.208;5.158;2023-07-13T08:24:32;7.28;;;3.55;;
65757;SDS011;52495;52.208;5.158;2023-07-13T08:27:00;6.35;;;3.33;;
65757;SDS011;52495;52.208;5.158;2023-07-13T08:29:27;7.45;;;3.78;;
65757;SDS011;52495;52.208;5.158;2023-07-13T08:31:53;11.40;;;4.18;;
65757;SDS011;52495;52.208;5.158;2023-07-13T08:34:20;8.57;;;2.88;;
65757;SDS011;52495;52.208;5.158;2023-07-13T08:36:47;4.55;;;1.98;;
65757;SDS011;52495;52.208;5.158;2023-07-13T08:39:14;3.80;;;1.90;;
65757;SDS011;52495;52.208;5.158;2023-07-13T08:41:41;5.47;;;1.98;;
65757;SDS011;52495;52.208;5.158;2023-07-13T08:44:15;5.65;;;2.40;;
65757;SDS011;52495;52.208;5.158;2023-07-13T08:46:50;7.38;;;3.25;;
65757;SDS011;52495;52.208;5.158;2023-07-13T08:49:19;5.60;;;2.72;;
65757;SDS011;52495;52.208;5.158;2023-07-13T08:51:49;7.22;;;2.40;;
65757;SDS011;52495;52.208;5.158;2023-07-13T08:54:21;4.93;;;2.40;;
65757;SDS011;52495;52.208;5.158;2023-07-13T08:56:51;8.23;;;2.60;;
65757;SDS011;52495;52.208;5.158;2023-07-13T08:59:22;8.88;;;2.42;;
65757;SDS011;52495;52.208;5.158;2023-07-13T09:01:58;7.27;;;2.83;;
65757;SDS011;52495;52.208;5.158;2023-07-13T09:04:36;3.95;;;1.85;;
65757;SDS011;52495;52.208;5.158;2023-07-13T09:07:11;3.67;;;1.70;;
65757;SDS011;52495;52.208;5.158;2023-07-13T09:09:50;4.63;;;2.00;;
65757;SDS011;52495;52.208;5.158;2023-07-13T09:12:27;6.82;;;2.17;;
65757;SDS011;52495;52.208;5.158;2023-07-13T09:15:04;5.13;;;2.33;;
65757;SDS011;52495;52.208;5.158;2023-07-13T09:17:45;5.57;;;2.08;;
65757;SDS011;52495;52.208;5.158;2023-07-13T09:20:17;3.30;;;2.10;;
65757;SDS011;52495;52.208;5.158;2023-07-13T09:22:51;6.55;;;2.78;;
65757;SDS011;52495;52.208;5.158;2023-07-13T09:25:23;4.82;;;2.70;;
65757;SDS011;52495;52.208;5.158;2023-07-13T09:27:57;5.88;;;2.90;;
65757;SDS011;52495;52.208;5.158;2023-07-13T09:30:32;5.65;;;2.38;;
65757;SDS011;52495;52.208;5.158;2023-07-13T09:33:03;12.02;;;2.40;;
65757;SDS011;52495;52.208;5.158;2023-07-13T09:35:30;4.93;;;2.25;;
65757;SDS011;52495;52.208;5.158;2023-07-13T09:37:58;5.90;;;2.30;;
65757;SDS011;52495;52.208;5.158;2023-07-13T09:43:11;8.82;;;3.30;;
65757;SDS011;52495;52.208;5.158;2023-07-13T09:45:41;7.90;;;3.03;;
65757;SDS011;52495;52.208;5.158;2023-07-13T09:48:13;5.72;;;3.10;;
65757;SDS011;52495;52.208;5.158;2023-07-13T09:50:41;5.72;;;2.80;;
65757;SDS011;52495;52.208;5.158;2023-07-13T09:53:12;4.15;;;2.50;;
65757;SDS011;52495;52.208;5.158;2023-07-13T09:55:40;5.82;;;3.08;;
65757;SDS011;52495;52.208;5.158;2023-07-13T09:58:10;6.85;;;3.17;;
65757;SDS011;52495;52.208;5.158;2023-07-13T10:00:39;7.68;;;4.18;;
65757;SDS011;52495;52.208;5.158;2023-07-13T10:03:16;6.57;;;2.75;;
65757;SDS011;52495;52.208;5.158;2023-07-13T10:05:46;4.72;;;3.15;;
65757;SDS011;52495;52.208;5.158;2023-07-13T10:08:17;6.25;;;3.00;;
65757;SDS011;52495;52.208;5.158;2023-07-13T10:10:45;7.72;;;3.33;;
65757;SDS011;52495;52.208;5.158;2023-07-13T10:13:24;5.47;;;2.97;;
65757;SDS011;52495;52.208;5.158;2023-07-13T10:15:55;5.78;;;3.22;;
65757;SDS011;52495;52.208;5.158;2023-07-13T10:18:24;8.13;;;2.97;;
65757;SDS011;52495;52.208;5.158;2023-07-13T10:20:53;9.35;;;3.03;;
65757;SDS011;52495;52.208;5.158;2023-07-13T10:23:26;6.05;;;2.58;;
65757;SDS011;52495;52.208;5.158;2023-07-13T10:25:57;7.47;;;3.05;;
65757;SDS011;52495;52.208;5.158;2023-07-13T10:28:28;7.45;;;3.22;;
65757;SDS011;52495;52.208;5.158;2023-07-13T10:30:58;7.50;;;2.85;;
65757;SDS011;52495;52.208;5.158;2023-07-13T10:33:27;8.32;;;2.92;;
65757;SDS011;52495;52.208;5.158;2023-07-13T10:35:56;9.40;;;2.85;;
65757;SDS011;52495;52.208;5.158;2023-07-13T10:38:29;11.82;;;3.15;;
65757;SDS011;52495;52.208;5.158;2023-07-13T10:40:57;5.82;;;2.97;;
65757;SDS011;52495;52.208;5.158;2023-07-13T10:43:28;7.50;;;2.77;;
65757;SDS011;52495;52.208;5.158;2023-07-13T10:46:03;5.47;;;2.78;;
65757;SDS011;52495;52.208;5.158;2023-07-13T10:48:32;8.18;;;3.13;;
65757;SDS011;52495;52.208;5.158;2023-07-13T10:51:02;10.65;;;3.05;;
65757;SDS011;52495;52.208;5.158;2023-07-13T10:53:32;7.75;;;3.42;;
65757;SDS011;52495;52.208;5.158;2023-07-13T10:56:02;8.32;;;3.00;;
65757;SDS011;52495;52.208;5.158;2023-07-13T10:58:35;9.02;;;3.63;;
65757;SDS011;52495;52.208;5.158;2023-07-13T11:01:06;9.53;;;3.90;;
65757;SDS011;52495;52.208;5.158;2023-07-13T11:03:36;11.10;;;3.50;;
65757;SDS011;52495;52.208;5.158;2023-07-13T11:06:06;9.98;;;4.15;;
65757;SDS011;52495;52.208;5.158;2023-07-13T11:08:50;7.32;;;2.85;;
65757;SDS011;52495;52.208;5.158;2023-07-13T11:11:32;6.30;;;2.65;;
65757;SDS011;52495;52.208;5.158;2023-07-13T11:14:04;7.50;;;2.75;;
65757;SDS011;52495;52.208;5.158;2023-07-13T11:16:52;9.95;;;3.08;;
65757;SDS011;52495;52.208;5.158;2023-07-13T11:22:12;6.93;;;2.63;;
65757;SDS011;52495;52.208;5.158;2023-07-13T11:27:27;6.70;;;2.38;;
65757;SDS011;52495;52.208;5.158;2023-07-13T11:30:23;7.70;;;2.65;;
65757;SDS011;52495;52.208;5.158;2023-07-13T11:33:08;7.13;;;2.33;;
65757;SDS011;52495;52.208;5.158;2023-07-13T11:35:41;7.37;;;3.03;;
65757;SDS011;52495;52.208;5.158;2023-07-13T11:38:14;5.20;;;2.15;;
65757;SDS011;52495;52.208;5.158;2023-07-13T11:40:44;4.65;;;2.47;;
65757;SDS011;52495;52.208;5.158;2023-07-13T11:43:12;6.05;;;2.58;;
65757;SDS011;52495;52.208;5.158;2023-07-13T11:45:40;6.65;;;3.00;;
65757;SDS011;52495;52.208;5.158;2023-07-13T11:48:19;4.60;;;2.22;;
65757;SDS011;52495;52.208;5.158;2023-07-13T11:50:54;8.90;;;2.78;;
65757;SDS011;52495;52.208;5.158;2023-07-13T11:53:24;7.57;;;2.42;;
65757;SDS011;52495;52.208;5.158;2023-07-13T11:55:53;5.47;;;2.40;;
65757;SDS011;52495;52.208;5.158;2023-07-13T11:58:21;6.50;;;2.63;;
65757;SDS011;52495;52.208;5.158;2023-07-13T12:00:50;6.38;;;2.50;;
65757;SDS011;52495;52.208;5.158;2023-07-13T12:03:22;6.15;;;2.40;;
65757;SDS011;52495;52.208;5.158;2023-07-13T12:05:58;6.53;;;2.33;;
65757;SDS011;52495;52.208;5.158;2023-07-13T12:08:26;4.80;;;2.30;;
65757;SDS011;52495;52.208;5.158;2023-07-13T12:10:57;9.40;;;3.05;;
65757;SDS011;52495;52.208;5.158;2023-07-13T12:15:52;8.35;;;2.35;;
65757;SDS011;52495;52.208;5.158;2023-07-13T12:18:22;7.38;;;2.42;;
65757;SDS011;52495;52.208;5.158;2023-07-13T12:20:55;6.82;;;2.45;;
65757;SDS011;52495;52.208;5.158;2023-07-13T12:23:25;6.30;;;2.42;;
65757;SDS011;52495;52.208;5.158;2023-07-13T12:25:55;5.85;;;2.40;;
65757;SDS011;52495;52.208;5.158;2023-07-13T12:28:29;7.28;;;2.00;;
65757;SDS011;52495;52.208;5.158;2023-07-13T12:30:59;6.57;;;2.80;;
65757;SDS011;52495;52.208;5.158;2023-07-13T12:33:29;4.93;;;2.35;;
65757;SDS011;52495;52.208;5.158;2023-07-13T12:35:58;6.57;;;2.10;;
65757;SDS011;52495;52.208;5.158;2023-07-13T12:38:27;5.63;;;2.60;;
65757;SDS011;52495;52.208;5.158;2023-07-13T12:40:54;5.20;;;2.50;;
65757;SDS011;52495;52.208;5.158;2023-07-13T12:43:21;7.95;;;2.70;;
65757;SDS011;52495;52.208;5.158;2023-07-13T12:45:55;5.95;;;2.63;;
65757;SDS011;52495;52.208;5.158;2023-07-13T12:48:23;6.75;;;2.70;;
65757;SDS011;52495;52.208;5.158;2023-07-13T12:50:51;5.35;;;2.35;;
65757;SDS011;52495;52.208;5.158;2023-07-13T12:53:21;6.95;;;2.53;;
65757;SDS011;52495;52.208;5.158;2023-07-13T12:55:50;7.55;;;2.80;;
65757;SDS011;52495;52.208;5.158;2023-07-13T12:58:21;6.93;;;2.78;;
65757;SDS011;52495;52.208;5.158;2023-07-13T13:00:53;5.72;;;2.78;;
65757;SDS011;52495;52.208;5.158;2023-07-13T13:03:24;8.77;;;3.00;;
65757;SDS011;52495;52.208;5.158;2023-07-13T13:06:00;6.95;;;2.95;;
65757;SDS011;52495;52.208;5.158;2023-07-13T13:08:28;8.45;;;3.50;;
65757;SDS011;52495;52.208;5.158;2023-07-13T13:10:55;12.38;;;3.15;;
65757;SDS011;52495;52.208;5.158;2023-07-13T13:13:22;4.53;;;2.38;;
65757;SDS011;52495;52.208;5.158;2023-07-13T13:15:49;5.95;;;2.58;;
65757;SDS011;52495;52.208;5.158;2023-07-13T13:18:17;6.72;;;2.55;;
65757;SDS011;52495;52.208;5.158;2023-07-13T13:20:45;6.13;;;3.13;;
65757;SDS011;52495;52.208;5.158;2023-07-13T13:23:14;7.55;;;2.50;;
65757;SDS011;52495;52.208;5.158;2023-07-13T13:25:43;5.28;;;2.42;;
65757;SDS011;52495;52.208;5.158;2023-07-13T13:28:15;5.97;;;2.58;;
65757;SDS011;52495;52.208;5.158;2023-07-13T13:30:43;9.23;;;2.63;;
65757;SDS011;52495;52.208;5.158;2023-07-13T13:33:11;6.45;;;2.60;;
65757;SDS011;52495;52.208;5.158;2023-07-13T13:35:40;6.90;;;2.72;;
65757;SDS011;52495;52.208;5.158;2023-07-13T13:38:10;7.07;;;2.40;;
65757;SDS011;52495;52.208;5.158;2023-07-13T13:40:40;6.55;;;3.13;;
65757;SDS011;52495;52.208;5.158;2023-07-13T13:43:14;7.85;;;2.72;;
65757;SDS011;52495;52.208;5.158;2023-07-13T13:45:43;7.53;;;3.15;;
65757;SDS011;52495;52.208;5.158;2023-07-13T13:48:13;7.70;;;2.72;;
65757;SDS011;52495;52.208;5.158;2023-07-13T13:50:41;7.30;;;2.88;;
65757;SDS011;52495;52.208;5.158;2023-07-13T13:53:09;6.18;;;2.28;;
65757;SDS011;52495;52.208;5.158;2023-07-13T13:55:38;4.80;;;2.72;;
65757;SDS011;52495;52.208;5.158;2023-07-13T13:58:08;7.75;;;2.35;;
65757;SDS011;52495;52.208;5.158;2023-07-13T14:00:36;8.02;;;2.63;;
65757;SDS011;52495;52.208;5.158;2023-07-13T14:03:03;6.55;;;2.50;;
65757;SDS011;52495;52.208;5.158;2023-07-13T14:05:32;4.07;;;2.40;;
65757;SDS011;52495;52.208;5.158;2023-07-13T14:07:59;7.22;;;2.70;;
65757;SDS011;52495;52.208;5.158;2023-07-13T14:10:26;6.28;;;2.22;;
65757;SDS011;52495;52.208;5.158;2023-07-13T14:12:54;6.57;;;2.40;;
65757;SDS011;52495;52.208;5.158;2023-07-13T14:15:24;5.30;;;2.00;;
65757;SDS011;52495;52.208;5.158;2023-07-13T14:17:53;5.53;;;2.22;;
65757;SDS011;52495;52.208;5.158;2023-07-13T14:20:21;4.60;;;2.08;;
65757;SDS011;52495;52.208;5.158;2023-07-13T14:22:49;4.95;;;2.45;;
65757;SDS011;52495;52.208;5.158;2023-07-13T14:25:16;7.63;;;2.00;;
65757;SDS011;52495;52.208;5.158;2023-07-13T14:27:44;5.57;;;1.95;;
65757;SDS011;52495;52.208;5.158;2023-07-13T14:30:13;5.15;;;2.05;;
65757;SDS011;52495;52.208;5.158;2023-07-13T14:32:42;4.85;;;2.28;;
65757;SDS011;52495;52.208;5.158;2023-07-13T14:35:10;4.68;;;2.30;;
65757;SDS011;52495;52.208;5.158;2023-07-13T14:37:38;6.13;;;2.30;;
65757;SDS011;52495;52.208;5.158;2023-07-13T14:40:12;7.35;;;2.30;;
65757;SDS011;52495;52.208;5.158;2023-07-13T14:42:40;4.78;;;2.10;;
65757;SDS011;52495;52.208;5.158;2023-07-13T14:45:12;5.13;;;2.10;;
65757;SDS011;52495;52.208;5.158;2023-07-13T14:47:41;6.35;;;2.10;;
65757;SDS011;52495;52.208;5.158;2023-07-13T14:50:13;5.63;;;2.40;;
65757;SDS011;52495;52.208;5.158;2023-07-13T14:55:10;6.68;;;2.55;;
65757;SDS011;52495;52.208;5.158;2023-07-13T14:57:38;5.47;;;2.10;;
65757;SDS011;52495;52.208;5.158;2023-07-13T15:00:05;4.78;;;1.98;;
65757;SDS011;52495;52.208;5.158;2023-07-13T15:02:42;6.53;;;2.17;;
65757;SDS011;52495;52.208;5.158;2023-07-13T15:05:15;3.53;;;2.10;;
65757;SDS011;52495;52.208;5.158;2023-07-13T15:07:43;4.57;;;2.10;;
65757;SDS011;52495;52.208;5.158;2023-07-13T15:10:15;3.60;;;2.08;;